Loging...

KPDC, Korea Polar Data Center

Korea Polar Data Center Scientific observations and results from Antarctica shall
be exchanged and made freely available

Browse

Popular Keywords

Search 28,659 data out of 28,659

Metadata Search Results1
No. Title Reg. Date
1 [KOPRI-KPDC-00001674]WRF model namelist input for Arctic winter climate change studies 2021-07-23
2 [KOPRI-KPDC-00001672]2016&17 Multibeam data of Terra Nova Bay (around Jang Bogo station) 2021-07-22
3 [KOPRI-KPDC-00001671]2018&19 Multibeam data of Terra Nova Bay (around Jang Bogo station) 2021-07-22
4 [KOPRI-KPDC-00001673]Multibeam data, Australian-Antarctic Ridge (AAR) and the Pacific-Antarctic Ridge (PAR), 2020/21 season 2021-07-22
5 [KOPRI-KVH-00002662]Desmarestia anceps Montagne 1842 (KOPRI-CH3912) 2021-07-21
6 [KOPRI-KVH-00002661]Desmarestia anceps Montagne 1842 (KOPRI-CH3912) 2021-07-21
7 [KOPRI-KVH-00002659]Antarctosaccion applanatum (Gain) Delépine 1970 (KOPRI-CH3911) 2021-07-21
8 [KOPRI-KVH-00002657]Phyllophora antarctica A.Gepp & E.S.Gepp 1905 (KOPRI-CH3910) 2021-07-21
9 [KOPRI-KVH-00002655]Phyllophora antarctica A.Gepp & E.S.Gepp 1905 (KOPRI-CH3909) 2021-07-21
10 [KOPRI-KVH-00002653]Phyllophora antarctica A.Gepp & E.S.Gepp 1905 (KOPRI-CH3908) 2021-07-21
11 [KOPRI-KVH-00002651]Phyllophora antarctica A.Gepp & E.S.Gepp 1905 (KOPRI-CH3907) 2021-07-21
12 [KOPRI-KVH-00002649]Phyllophora antarctica A.Gepp & E.S.Gepp 1905 (KOPRI-CH3906) 2021-07-21
13 [KOPRI-KVH-00002647]Phyllophora antarctica A.Gepp & E.S.Gepp 1905 (KOPRI-CH3905) 2021-07-21
14 [KOPRI-KVH-00002645]Phyllophora antarctica A.Gepp & E.S.Gepp 1905 (KOPRI-CH3904) 2021-07-21
15 [KOPRI-KVH-00002640]Phyllophora antarctica A.Gepp & E.S.Gepp 1905 (KOPRI-CH3901) 2021-07-21
16 [KOPRI-KVH-00002638]Phyllophora antarctica A.Gepp & E.S.Gepp 1905 (KOPRI-CH3900) 2021-07-21
17 [KOPRI-KVH-00002636]Phyllophora antarctica A.Gepp & E.S.Gepp 1905 (KOPRI-CH3899) 2021-07-21
18 [KOPRI-KVH-00002634]Phyllophora antarctica A.Gepp & E.S.Gepp 1905 (KOPRI-CH3898) 2021-07-21
19 [KOPRI-KVH-00002632]Phyllophora antarctica A.Gepp & E.S.Gepp 1905 (KOPRI-CH3897) 2021-07-21
20 [KOPRI-KVH-00002630]Phyllophora antarctica A.Gepp & E.S.Gepp 1905 (KOPRI-CH3896) 2021-07-21
21 [KOPRI-KVH-00002628]Phyllophora antarctica A.Gepp & E.S.Gepp 1905 (KOPRI-CH3895) 2021-07-21
22 [KOPRI-KVH-00002626]Phyllophora antarctica A.Gepp & E.S.Gepp 1905 (KOPRI-CH3894) 2021-07-21
23 [KOPRI-KVH-00002624]Phyllophora antarctica A.Gepp & E.S.Gepp 1905 (KOPRI-CH3893) 2021-07-21
24 [KOPRI-KVH-00002622]Phyllophora antarctica A.Gepp & E.S.Gepp 1905 (KOPRI-CH3892) 2021-07-21
25 [KOPRI-KVH-00002606]Monostroma hariotii Gain (KOPRI-CH3891) 2021-07-21
26 [KOPRI-KVH-00002602]Phaeurus antarcticus Skottsberg (KOPRI-CH3890) 2021-07-21
27 [KOPRI-KPDC-00001669]Upper O3 observation data at Jang Bogo Station in 2021 2021-07-15
28 [KOPRI-KPDC-00001668]Upper O3 observation data at Jang Bogo Station in 2020 2021-07-15
29 [KOPRI-KPDC-00001667]Upper O3 observation data at Jang Bogo Station in 2019 2021-07-15
30 [KOPRI-KVH-00002648]Phyllophora antarctica A.Gepp & E.S.Gepp 1905 (KOPRI-CH3655) 2021-07-14
31 [KOPRI-KVH-00002650]Phyllophora antarctica A.Gepp & E.S.Gepp 1905 (KOPRI-CH3656) 2021-07-14
32 [KOPRI-KVH-00002652]Phyllophora antarctica A.Gepp & E.S.Gepp 1905 (KOPRI-CH3657) 2021-07-14
33 [KOPRI-KVH-00002654]Phyllophora antarctica A.Gepp & E.S.Gepp 1905 (KOPRI-CH3658) 2021-07-14
34 [KOPRI-KVH-00002656]Phyllophora antarctica A.Gepp & E.S.Gepp 1905 (KOPRI-CH3659) 2021-07-14
35 [KOPRI-KVH-00002658]Phyllophora antarctica A.Gepp & E.S.Gepp 1905 (KOPRI-CH3660) 2021-07-14
36 [KOPRI-KVH-00002660]Antarctosaccion applanatum (Gain) Delépine 1970 (KOPRI-CH3661) 2021-07-14
37 [KOPRI-KVH-00002646]Phyllophora antarctica A.Gepp & E.S.Gepp 1905 (KOPRI-CH3654) 2021-07-14
38 [KOPRI-KPDC-00001666]Wind data on ARAON DaDis for Antarctic cruise, 2020/2021 2021-07-14
39 [KOPRI-KPDC-00001665]Weather data on ARAON DaDis for Antarctic cruise, 2020/2021 2021-07-13
40 [KOPRI-KPDC-00001664]Thermosalinograph data on ARAON DaDis for Antarctic cruise, 2020/2021 2021-07-13
41 [KOPRI-KPDC-00001663]Motion sensor data on ARAON DaDis for Antarctic cruise, 2020/2021 2021-07-13
42 [KOPRI-KPDC-00001662]Gyro compass data on ARAON DaDis for Antarctic cruise, 2020/2021 2021-07-13
43 [KOPRI-KPDC-00001661]Fluorometer data on ARAON DaDis for Antarctic cruise, 2020/2021 2021-07-13
44 [KOPRI-KPDC-00001660]Upper O3 observation data at Jang Bogo Station in 2015 - 2017 2021-07-08
45 [KOPRI-KPDC-00000035]Marine Protozoa samples from King George Island collected in 2011 2021-07-05
46 [KOPRI-KPDC-00001658]CTD profiles from seal-tagging CTD bio-loggers 2021-06-28
47 [KOPRI-KPDC-00001659]Physical, chemical, and biological dataset for the ARA09B cruise 2021-06-18
48 [KOPRI-KPDC-00001657]In-situ measurements for atmospheric DMS, its oxidative products, and aerosol size distribution at the King Sejong station in 2018–2020 2021-06-14
49 [KOPRI-KPDC-00001617]Underwater acoustic data in the East Siberian Sea from 2017 to 2018 2021-05-12
50 [KOPRI-KPDC-00001656]LADCP data observed in the Terra Nova Bay, Ross Sea,in December, 2020 (ANA11A) 2021-05-06
51 [KOPRI-KPDC-00001655]CTD profiles observed in the Terra Nova Bay, Ross Sea, in December, 2020 (ANA11A) 2021-05-06
52 [KOPRI-KPDC-00001654]Spotted seal fur samples in Baekryeong island 2021-04-29
53 [KOPRI-KPDC-00001508]Proton aurora images at Kjell Henriksen Observatory, Norway at 2020 2021-04-26
54 [KOPRI-KPDC-00001505]All-Sky image data of the airglow emissions at King Sejong Station, Antarctica at 2020 2021-04-26
55 [KOPRI-KPDC-00001506]Ionospheric total electron content monitoring system over Kiruna, Sweden at 2020 2021-04-26
56 [KOPRI-KPDC-00001507]Ionospheric total electron content monitoring system over Dasan Station, Arctic at 2020 2021-04-23
57 [KOPRI-KPDC-00001653]Temporal variation of phytoplankton in the surface water of Marian Cove, King George Island, Antarctica, November 2020 - December 2020 2021-04-12
58 [KOPRI-KPDC-00001594]Temporal variation of phytoplankton in the surface water of Marian Cove, King George Island, Antarctica, January 2020- October 2020 2021-04-12
59 [KOPRI-KVH-00002643]Chloromonas deceptionensis H. Chae, H.G. Choi & J. H. Kim (KSF0090) 2021-04-08
60 [KOPRI-KVH-00002644]Ostravamonas greenwichensis H. Chae, H.-G. Choi & J. H. Kim (KOPRI-KSF0208) 2021-04-06
61 [KOPRI-KPDC-00001652]Temporal variation of marine phytoplankton in the surface water of the Antarctic Jang Bogo Station in Terra Nova Bay, October 2020 - December 2020 2021-04-06
62 [KOPRI-KPDC-00001437]High-resolution hyperspectral images of Council, AK 2021-03-30
63 [KOPRI-KPDC-00001651]AWS data of Council, Alaska site in 2016 2021-03-30
64 [KOPRI-KPDC-00001650]AWS data of Council, Alaska site in 2017 2021-03-30
65 [KOPRI-KPDC-00001649]AWS data of Council, Alaska site in 2018 2021-03-30
66 [KOPRI-KPDC-00001648]AWS data of Council, Alaska site in 2019 2021-03-30
67 [KOPRI-KPDC-00001647]CO2 auto-chamber data of Council site in 2019 2021-03-30
68 [KOPRI-KPDC-00001646]Rock Properties Changing Data from Freeze Thaw weathering at Dasan station region in 2020 2021-03-29
69 [KOPRI-KPDC-00001645]Weddell seal placenta 2021-03-26
70 [KOPRI-KPDC-00001644]Weddell seal amniotic fluid and blood samples 2021-03-26
71 [KOPRI-KPDC-00001643]Weddell seal fecal samples 2021-03-26
72 [KOPRI-KPDC-00001642]Weddell seal hair samples 2021-03-26
73 [KOPRI-KPDC-00001530]NanoSMPS particle number concentration in 2019 2021-03-26
74 [KOPRI-KPDC-00001529]NanoSMPS particle number concentration in 2020 2021-03-26
75 [KOPRI-KPDC-00001641]Black Carbon data at Cambridge Bay station in 2020 2021-03-25
76 [KOPRI-KPDC-00001640]CCN(Cloud Condensation Nuclei) data at Zeppelin station in 2020 2021-03-25
77 [KOPRI-KPDC-00001639]CCN(Cloud Condensation Nuclei) data at Zeppelin station in 2019 2021-03-25
78 [KOPRI-KPDC-00001638]CCN(Cloud Condensation Nuclei) data at Zeppelin station in 2018 2021-03-25
79 [KOPRI-KVH-00002642]Syntrichia filaris (Müll.Hal.) R.H.Zander (KG-1407) 2021-03-23
80 [KOPRI-KPDC-00001637]Ship-borne meteorological data over the Arctic Ocean during Aug 10-21, 2016 (ARA07B) 2021-03-15
81 [KOPRI-KVH-00001115]Syntrichia filaris (Müll.Hal.) R.H.Zander (KG-1172) 2021-03-10
82 [KOPRI-KVH-00001431]Chorisodontium aciphyllum (Hook.f.&Wilson) Broth. (KG-1850) 2021-03-10
83 [KOPRI-KVH-00002601]Aulacomnium turgidum (Wahlenb.) Schwaegr. (ArM0003) 2021-03-10
84 [KOPRI-KVH-00002615]Bryum sp. (KMR5045) 2021-03-10
85 [KOPRI-KPDC-00001636]Arctic migratory Korea wintering birds metadata and gps location tracker number 2021-03-10
86 [KOPRI-KPDC-00001635]Meteorological data at the Jang Bogo Station, Antarctica in 2020 2021-03-08
87 [KOPRI-KPDC-00001634]Lowered Acoustic Doppler Current Profiler (LADCP) data - August 2016, western Arctic Ocean (4 CTD stations) 2021-03-08
88 [KOPRI-KPDC-00000321]2013 CTD Data, Ross Sea of Antarctic 2021-01-21
89 [KOPRI-KPDC-00001633]Observed CTD data and dissolved noble gases along the Dotson Trough, Amundsen Sea, Antarctica in 2011 2020-12-28
90 [KOPRI-KPDC-00001632]A study on the distribution characteristics of stable oxygen isotope in the Amundsen Sea in 2011 2020-12-24
91 [KOPRI-KPDC-00001631]Foraging trips of Adélie penguin breeding at Adélie Cove on December 2018 2020-12-23
92 [KOPRI-KPDC-00001630]Foraging trips of Adélie penguin breeding at Inexpressible Island on December 2018 2020-12-22
93 [KOPRI-KPDC-00001629]Foraging trips of Chinstrap penguin and Gentoo penguin breeding at Narebski Point from 2006 to 2019 2020-12-18
94 [KOPRI-KPDC-00001628]Weather forecasts over the Arctic region 2020-12-17
95 [KOPRI-KPDC-00001626]Soil samples and their basic properties in Adventdalen, Svalbard 2020-12-15
96 [KOPRI-KPDC-00001627]Phytoplankton species images in the Antarctic coastal waters, 2020 2020-12-14
97 [KOPRI-KPDC-00001625]Mutlibeam echosounder (MBES) data and sediment thickness mapping results from the sub-bottom profiler (SBP) data in the Chukchi Rise, Arctic Ocean 2020-12-09
98 [KOPRI-KPDC-00001623]Magnetic anomalies and bathymetry on the profile line (line2, 2013) crossing the seamounts around the KR1, Australian-Antarctic Ridge (AAR) 2020-11-26
99 [KOPRI-KPDC-00001622]Magnetic anomalies and bathymetry on the profile line (line3, 2013) crossing the seamounts around the KR1, Australian-Antarctic Ridge (AAR) 2020-11-26
100 [KOPRI-KPDC-00001621]Magnetic anomalies and bathymetry on the profile line (line1, 2016) crossing the seamounts around the KR1, Australian-Antarctic Ridge (AAR) 2020-11-26